createdAt,value
2022-07-27T00:01:21.291Z,7.47
2022-07-27T00:03:47.902Z,4.90
2022-07-27T00:06:14.773Z,6.28
2022-07-27T00:08:41.238Z,5.38
2022-07-27T00:11:08.189Z,6.65
2022-07-27T00:13:34.650Z,8.13
2022-07-27T00:16:01.475Z,7.63
2022-07-27T00:18:28.029Z,7.70
2022-07-27T00:20:54.603Z,9.85
2022-07-27T00:23:22.097Z,12.32
2022-07-27T00:25:48.557Z,12.23
2022-07-27T00:28:15.038Z,11.30
2022-07-27T00:30:41.693Z,10.98
2022-07-27T00:33:08.415Z,9.73
2022-07-27T00:35:35.928Z,7.05
2022-07-27T00:38:03.293Z,9.00
2022-07-27T00:40:29.683Z,7.07
2022-07-27T00:42:56.262Z,5.55
2022-07-27T00:45:22.696Z,8.43
2022-07-27T00:47:54.578Z,4.57
2022-07-27T00:50:21.564Z,3.45
2022-07-27T00:52:48.579Z,5.07
2022-07-27T00:55:15.842Z,6.55
2022-07-27T00:57:57.931Z,6.55
2022-07-27T01:00:25.826Z,5.65
2022-07-27T01:02:52.520Z,5.15
2022-07-27T01:05:19.096Z,9.40
2022-07-27T01:07:47.498Z,7.32
2022-07-27T01:10:15.011Z,6.78
2022-07-27T01:12:41.509Z,8.32
2022-07-27T01:15:08.081Z,7.00
2022-07-27T01:17:35.353Z,7.60
2022-07-27T01:20:01.916Z,8.35
2022-07-27T01:22:28.389Z,10.10
2022-07-27T01:24:54.945Z,9.15
2022-07-27T01:27:21.442Z,7.45
2022-07-27T01:29:48.285Z,10.35
2022-07-27T01:32:14.834Z,8.63
2022-07-27T01:34:41.262Z,4.63
2022-07-27T01:37:07.979Z,8.07
2022-07-27T01:39:34.422Z,4.38
2022-07-27T01:42:01.123Z,2.83
2022-07-27T01:44:27.719Z,4.65
2022-07-27T01:46:54.285Z,2.92
2022-07-27T01:49:20.889Z,4.88
2022-07-27T01:51:48.305Z,2.42
2022-07-27T01:54:15.094Z,4.15
2022-07-27T01:56:41.627Z,2.70
2022-07-27T01:59:08.177Z,3.38
2022-07-27T02:01:43.970Z,3.63
2022-07-27T02:04:10.414Z,2.53
2022-07-27T02:06:36.923Z,7.82
2022-07-27T02:09:03.436Z,3.45
2022-07-27T02:11:48.687Z,3.15
2022-07-27T02:14:16.353Z,3.00
2022-07-27T02:16:42.918Z,2.47
2022-07-27T02:19:11.166Z,2.03
2022-07-27T02:21:37.888Z,3.35
2022-07-27T02:24:04.443Z,2.38
2022-07-27T02:26:30.918Z,1.88
2022-07-27T02:28:57.503Z,3.22
2022-07-27T02:31:24.037Z,3.90
2022-07-27T02:33:50.430Z,1.60
2022-07-27T02:36:16.885Z,3.13
2022-07-27T02:38:43.439Z,1.98
2022-07-27T02:41:09.949Z,2.80
2022-07-27T02:43:36.361Z,3.88
2022-07-27T02:46:03.810Z,3.08
2022-07-27T02:48:31.534Z,5.47
2022-07-27T02:51:01.857Z,5.20
2022-07-27T02:53:28.917Z,1.70
2022-07-27T02:55:55.812Z,3.05
2022-07-27T02:58:22.417Z,2.92
2022-07-27T03:00:48.880Z,2.58
2022-07-27T03:03:15.409Z,3.22
2022-07-27T03:05:42.122Z,3.47
2022-07-27T03:08:08.585Z,3.55
2022-07-27T03:10:35.365Z,2.42
2022-07-27T03:13:01.764Z,1.70
2022-07-27T03:15:29.568Z,2.65
2022-07-27T03:17:56.809Z,6.72
2022-07-27T03:20:23.433Z,1.95
2022-07-27T03:22:49.878Z,5.63
2022-07-27T03:25:16.310Z,2.60
2022-07-27T03:27:42.701Z,2.22
2022-07-27T03:30:09.339Z,2.78
2022-07-27T03:32:35.794Z,2.95
2022-07-27T03:35:02.399Z,3.97
2022-07-27T03:37:28.965Z,4.28
2022-07-27T03:39:56.468Z,8.48
2022-07-27T03:42:22.869Z,4.82
2022-07-27T03:44:49.428Z,3.00
2022-07-27T03:47:15.919Z,2.67
2022-07-27T03:49:42.993Z,4.20
2022-07-27T03:52:11.993Z,4.15
2022-07-27T03:54:42.237Z,5.88
2022-07-27T03:57:08.621Z,5.80
2022-07-27T03:59:35.066Z,5.78
2022-07-27T04:02:01.622Z,2.95
2022-07-27T04:04:28.192Z,5.25
2022-07-27T04:06:54.665Z,3.70
2022-07-27T04:09:21.243Z,5.10
2022-07-27T04:11:51.164Z,2.63
2022-07-27T04:14:18.195Z,3.83
2022-07-27T04:16:44.725Z,2.75
2022-07-27T04:19:11.458Z,2.65
2022-07-27T04:21:38.138Z,2.63
2022-07-27T04:24:06.978Z,4.50
2022-07-27T04:26:33.469Z,4.45
2022-07-27T04:29:00.054Z,6.25
2022-07-27T04:31:26.512Z,6.63
2022-07-27T04:33:53.690Z,7.00
2022-07-27T04:36:20.136Z,8.27
2022-07-27T04:38:46.880Z,15.73
2022-07-27T04:41:13.425Z,12.15
2022-07-27T04:43:41.015Z,10.68
2022-07-27T04:46:11.785Z,15.15
2022-07-27T04:48:41.426Z,14.63
2022-07-27T04:51:15.711Z,14.75
2022-07-27T04:53:53.958Z,13.27
2022-07-27T04:58:51.394Z,10.68
2022-07-27T05:01:17.833Z,8.55
2022-07-27T05:03:44.300Z,7.50
2022-07-27T05:06:10.738Z,7.50
2022-07-27T05:08:37.111Z,3.65
2022-07-27T05:11:03.714Z,8.38
2022-07-27T05:13:30.212Z,9.30
2022-07-27T05:15:58.738Z,4.95
2022-07-27T05:18:25.718Z,7.45
2022-07-27T05:20:52.495Z,10.60
2022-07-27T05:23:18.890Z,7.95
2022-07-27T05:25:45.405Z,11.05
2022-07-27T05:28:12.661Z,9.00
2022-07-27T05:30:39.061Z,7.35
2022-07-27T05:33:05.543Z,7.00
2022-07-27T05:35:32.131Z,4.90
2022-07-27T05:37:58.546Z,4.90
2022-07-27T05:40:24.981Z,6.13
2022-07-27T05:42:51.473Z,6.15
2022-07-27T05:45:17.945Z,3.30
2022-07-27T05:47:44.409Z,4.10
2022-07-27T05:50:10.803Z,5.57
2022-07-27T05:52:38.136Z,5.40
2022-07-27T05:55:05.377Z,5.47
2022-07-27T05:57:31.835Z,4.53
2022-07-27T06:00:01.038Z,6.97
2022-07-27T06:02:30.116Z,8.75
2022-07-27T06:04:56.596Z,6.05
2022-07-27T06:07:41.779Z,2.72
2022-07-27T06:10:08.963Z,3.55
2022-07-27T06:12:42.372Z,2.85
2022-07-27T06:15:09.555Z,6.97
2022-07-27T06:17:36.527Z,4.60
2022-07-27T06:20:04.457Z,2.63
2022-07-27T06:22:31.392Z,5.07
2022-07-27T06:24:57.942Z,3.80
2022-07-27T06:27:28.601Z,4.85
2022-07-27T06:29:56.069Z,4.10
2022-07-27T06:32:22.480Z,2.55
2022-07-27T06:34:49.372Z,4.25
2022-07-27T06:37:16.940Z,1.98
2022-07-27T06:39:46.542Z,3.72
2022-07-27T06:42:15.950Z,3.20
2022-07-27T06:44:42.377Z,4.53
2022-07-27T06:47:08.895Z,3.17
2022-07-27T06:49:35.388Z,2.30
2022-07-27T06:52:02.082Z,5.30
2022-07-27T06:54:28.461Z,2.15
2022-07-27T06:56:54.943Z,3.20
2022-07-27T06:59:21.386Z,2.55
2022-07-27T07:01:48.904Z,3.13
2022-07-27T07:04:15.557Z,2.78
2022-07-27T07:06:42.071Z,1.77
2022-07-27T07:09:09.081Z,1.40
2022-07-27T07:11:36.080Z,2.63
2022-07-27T07:14:02.595Z,2.28
2022-07-27T07:16:29.111Z,3.13
2022-07-27T07:18:55.498Z,2.85
2022-07-27T07:21:22.070Z,2.50
2022-07-27T07:23:48.860Z,3.05
2022-07-27T07:26:15.257Z,4.18
2022-07-27T07:28:41.732Z,4.25
2022-07-27T07:31:08.735Z,2.17
2022-07-27T07:33:35.244Z,2.75
2022-07-27T07:36:13.399Z,3.95
2022-07-27T07:38:41.661Z,3.35
2022-07-27T07:41:08.141Z,4.78
2022-07-27T07:43:36.603Z,2.50
2022-07-27T07:46:03.150Z,4.03
2022-07-27T07:48:29.529Z,2.00
2022-07-27T07:50:55.959Z,3.95
2022-07-27T07:53:23.078Z,3.40
2022-07-27T07:55:49.920Z,2.53
2022-07-27T07:58:16.323Z,3.83
2022-07-27T08:00:43.801Z,3.47
2022-07-27T08:03:10.588Z,2.65
2022-07-27T08:05:37.551Z,1.92
2022-07-27T08:08:04.074Z,3.30
2022-07-27T08:10:30.501Z,2.95
2022-07-27T08:12:57.020Z,2.38
2022-07-27T08:15:35.486Z,3.60
2022-07-27T08:18:03.249Z,1.80
2022-07-27T08:20:29.685Z,4.13
2022-07-27T08:22:56.235Z,2.20
2022-07-27T08:25:22.638Z,3.47
2022-07-27T08:27:49.068Z,1.45
2022-07-27T08:30:15.555Z,0.63
2022-07-27T08:32:55.936Z,0.90
2022-07-27T08:35:23.461Z,2.55
2022-07-27T08:37:50.152Z,3.10
2022-07-27T08:43:05.181Z,3.85
2022-07-27T08:45:32.086Z,1.95
2022-07-27T08:47:58.496Z,2.50
2022-07-27T08:50:25.034Z,4.88
2022-07-27T08:52:56.523Z,2.42
2022-07-27T08:55:23.099Z,4.32
2022-07-27T08:57:50.297Z,1.92
2022-07-27T09:00:17.083Z,2.25
2022-07-27T09:02:44.747Z,3.30
2022-07-27T09:05:11.276Z,1.15
2022-07-27T09:07:37.824Z,2.90
2022-07-27T09:10:05.094Z,4.38
2022-07-27T09:12:32.773Z,3.80
2022-07-27T09:15:08.758Z,3.15
2022-07-27T09:17:51.036Z,3.88
2022-07-27T09:22:47.194Z,2.10
2022-07-27T09:25:14.721Z,3.55
2022-07-27T09:27:42.306Z,4.07
2022-07-27T09:30:13.156Z,2.65
2022-07-27T09:32:39.879Z,5.05
2022-07-27T09:35:22.234Z,1.77
2022-07-27T09:40:15.152Z,4.50
2022-07-27T09:43:09.040Z,2.33
2022-07-27T09:45:32.480Z,1.67
2022-07-27T09:50:31.083Z,3.65
2022-07-27T09:53:41.761Z,2.50
2022-07-27T09:56:07.504Z,3.13
2022-07-27T09:58:42.997Z,3.47
2022-07-27T10:01:13.847Z,1.42
2022-07-27T10:03:41.213Z,3.92
2022-07-27T10:06:08.256Z,5.70
2022-07-27T10:08:35.949Z,5.15
2022-07-27T10:11:03.867Z,1.70
2022-07-27T10:13:36.542Z,5.43
2022-07-27T10:16:18.208Z,3.42
2022-07-27T10:18:55.567Z,4.97
2022-07-27T10:21:23.215Z,3.55
2022-07-27T10:29:38.396Z,3.38
2022-07-27T10:32:08.730Z,2.35
2022-07-27T10:34:36.559Z,1.98
2022-07-27T10:37:13.450Z,4.20
2022-07-27T10:39:44.129Z,4.63
2022-07-27T10:42:29.316Z,1.85
2022-07-27T10:45:04.376Z,1.70
2022-07-27T10:47:55.847Z,3.47
2022-07-27T10:50:24.933Z,3.10
2022-07-27T10:52:53.135Z,6.32
2022-07-27T10:55:32.419Z,3.00
2022-07-27T10:58:19.807Z,2.00
2022-07-27T11:00:54.234Z,1.58
2022-07-27T11:03:25.512Z,3.17
2022-07-27T11:06:01.961Z,3.63
2022-07-27T11:08:46.705Z,2.53
2022-07-27T11:11:15.531Z,3.60
2022-07-27T11:13:41.967Z,3.38
2022-07-27T11:16:23.286Z,5.13
2022-07-27T11:18:54.935Z,5.97
2022-07-27T11:21:28.748Z,2.05
2022-07-27T11:23:59.550Z,4.13
2022-07-27T11:26:27.017Z,2.67
2022-07-27T11:28:53.496Z,3.40
2022-07-27T11:31:45.307Z,4.63
2022-07-27T11:34:07.743Z,2.05
2022-07-27T11:36:44.790Z,5.15
2022-07-27T11:39:28.555Z,1.52
2022-07-27T11:42:08.639Z,6.25
2022-07-27T11:44:38.473Z,3.90
2022-07-27T11:47:07.359Z,2.40
2022-07-27T11:49:33.904Z,2.45
2022-07-27T11:52:05.271Z,2.40
2022-07-27T11:54:36.063Z,1.88
2022-07-27T11:57:05.390Z,3.53
2022-07-27T11:59:32.977Z,2.97
2022-07-27T12:02:00.934Z,1.58
2022-07-27T12:04:28.363Z,2.22
2022-07-27T12:06:57.823Z,3.63
2022-07-27T12:09:24.554Z,3.40
2022-07-27T12:11:54.109Z,4.97
2022-07-27T12:14:28.363Z,4.75
2022-07-27T12:17:06.065Z,1.83
2022-07-27T12:19:32.525Z,2.80
2022-07-27T12:21:58.905Z,1.58
2022-07-27T12:24:32.668Z,2.70
2022-07-27T12:27:06.684Z,2.20
2022-07-27T12:29:33.521Z,4.03
2022-07-27T12:32:02.438Z,3.53
2022-07-27T12:34:32.919Z,5.63
2022-07-27T12:36:59.353Z,3.80
2022-07-27T12:39:26.822Z,2.92
2022-07-27T12:42:06.719Z,3.40
2022-07-27T12:44:34.446Z,4.10
2022-07-27T12:47:02.038Z,4.75
2022-07-27T12:49:34.536Z,2.25
2022-07-27T12:52:08.161Z,3.15
2022-07-27T12:54:34.562Z,2.42
2022-07-27T12:57:00.966Z,4.95
2022-07-27T12:59:27.426Z,4.32
2022-07-27T13:01:55.765Z,3.92
2022-07-27T13:04:22.433Z,2.05
2022-07-27T13:06:48.819Z,1.52
2022-07-27T13:09:15.844Z,2.22
2022-07-27T13:11:46.310Z,2.55
2022-07-27T13:16:40.926Z,2.35
2022-07-27T13:19:07.363Z,3.17
2022-07-27T13:21:33.777Z,2.78
2022-07-27T13:24:00.178Z,1.88
2022-07-27T13:26:27.614Z,2.20
2022-07-27T13:28:54.773Z,5.13
2022-07-27T13:31:21.192Z,2.58
2022-07-27T13:33:47.618Z,2.42
2022-07-27T13:36:14.023Z,3.05
2022-07-27T13:38:40.418Z,5.68
2022-07-27T13:41:08.231Z,0.98
2022-07-27T13:43:34.811Z,3.70
2022-07-27T13:46:03.197Z,3.28
2022-07-27T13:48:32.480Z,3.13
2022-07-27T13:50:58.925Z,2.90
2022-07-27T13:53:26.020Z,2.78
2022-07-27T13:55:52.358Z,1.75
2022-07-27T13:58:18.790Z,2.42
2022-07-27T14:00:45.342Z,2.72
2022-07-27T14:03:11.812Z,4.13
2022-07-27T14:05:38.331Z,1.55
2022-07-27T14:08:08.406Z,0.80
2022-07-27T14:10:41.832Z,2.53
2022-07-27T14:13:09.886Z,1.90
2022-07-27T14:15:53.399Z,1.58
2022-07-27T14:18:25.912Z,1.67
2022-07-27T14:20:52.546Z,2.35
2022-07-27T14:23:18.970Z,1.83
2022-07-27T14:25:45.428Z,3.83
2022-07-27T14:28:11.856Z,2.05
2022-07-27T14:30:38.210Z,4.40
2022-07-27T14:33:04.668Z,2.15
2022-07-27T14:35:31.100Z,1.55
2022-07-27T14:38:00.041Z,4.00
2022-07-27T14:40:26.551Z,2.90
2022-07-27T14:42:52.947Z,5.38
2022-07-27T14:45:19.871Z,2.15
2022-07-27T14:47:46.606Z,3.13
2022-07-27T14:50:13.114Z,2.00
2022-07-27T14:52:39.504Z,1.95
2022-07-27T14:55:06.178Z,4.10
2022-07-27T14:57:32.590Z,2.63
2022-07-27T14:59:58.965Z,2.13
2022-07-27T15:02:25.492Z,1.90
2022-07-27T15:04:51.831Z,2.08
2022-07-27T15:07:18.224Z,7.47
2022-07-27T15:09:44.713Z,2.92
2022-07-27T15:12:11.493Z,2.35
2022-07-27T15:14:39.575Z,3.42
2022-07-27T15:17:06.001Z,1.65
2022-07-27T15:19:32.477Z,1.42
2022-07-27T15:21:58.990Z,6.18
2022-07-27T15:24:25.373Z,2.20
2022-07-27T15:26:51.794Z,3.58
2022-07-27T15:29:18.213Z,2.60
2022-07-27T15:31:44.629Z,2.08
2022-07-27T15:34:11.043Z,2.65
2022-07-27T15:36:43.597Z,2.85
2022-07-27T15:39:11.552Z,2.45
2022-07-27T15:41:39.274Z,4.20
2022-07-27T15:44:06.447Z,4.30
2022-07-27T15:46:33.704Z,3.40
2022-07-27T15:49:00.463Z,2.22
2022-07-27T15:51:26.932Z,4.32
2022-07-27T15:53:53.497Z,3.97
2022-07-27T15:56:19.914Z,3.00
2022-07-27T15:58:46.311Z,4.47
2022-07-27T16:01:12.709Z,2.50
2022-07-27T16:03:39.214Z,4.82
2022-07-27T16:06:05.809Z,3.28
2022-07-27T16:08:32.197Z,2.85
2022-07-27T16:10:58.824Z,2.65
2022-07-27T16:13:25.453Z,2.92
2022-07-27T16:16:10.833Z,4.18
2022-07-27T16:18:39.127Z,4.40
2022-07-27T16:21:05.911Z,4.55
2022-07-27T16:23:32.868Z,3.33
2022-07-27T16:26:05.041Z,4.07
2022-07-27T16:28:34.020Z,2.33
2022-07-27T16:31:01.031Z,2.92
2022-07-27T16:33:27.543Z,2.67
2022-07-27T16:35:54.001Z,2.75
2022-07-27T16:38:20.429Z,2.30
2022-07-27T16:40:46.948Z,2.97
2022-07-27T16:43:13.425Z,2.95
2022-07-27T16:45:39.920Z,2.08
2022-07-27T16:48:06.442Z,3.85
2022-07-27T16:50:32.901Z,6.22
2022-07-27T16:52:59.710Z,3.83
2022-07-27T16:55:27.580Z,2.22
2022-07-27T16:57:54.326Z,2.20
2022-07-27T17:00:20.805Z,4.22
2022-07-27T17:02:47.518Z,4.30
2022-07-27T17:05:13.951Z,3.85
2022-07-27T17:07:41.326Z,5.93
2022-07-27T17:10:07.954Z,4.53
2022-07-27T17:12:38.850Z,2.75
2022-07-27T17:15:07.395Z,1.73
2022-07-27T17:17:34.076Z,4.25
2022-07-27T17:20:00.636Z,4.50
2022-07-27T17:22:27.132Z,3.78
2022-07-27T17:24:53.757Z,2.42
2022-07-27T17:27:20.890Z,3.05
2022-07-27T17:29:47.375Z,1.83
2022-07-27T17:32:13.836Z,2.20
2022-07-27T17:34:43.336Z,2.88
2022-07-27T17:37:09.726Z,2.75
2022-07-27T17:39:37.719Z,3.95
2022-07-27T17:42:04.188Z,5.07
2022-07-27T17:44:30.877Z,4.25
2022-07-27T17:46:57.417Z,2.20
2022-07-27T17:49:24.049Z,3.42
2022-07-27T17:51:50.589Z,2.78
2022-07-27T17:54:17.021Z,2.67
2022-07-27T17:56:43.481Z,3.65
2022-07-27T17:59:35.973Z,4.55
2022-07-27T18:01:56.907Z,0.77
2022-07-27T18:04:23.435Z,2.33
2022-07-27T18:06:49.892Z,2.50
2022-07-27T18:09:17.163Z,4.00
2022-07-27T18:11:43.917Z,1.88
2022-07-27T18:14:10.489Z,3.25
2022-07-27T18:16:40.729Z,3.35
2022-07-27T18:19:07.824Z,2.05
2022-07-27T18:21:34.933Z,1.20
2022-07-27T18:24:01.778Z,2.78
2022-07-27T18:26:28.177Z,2.80
2022-07-27T18:28:55.879Z,3.42
2022-07-27T18:31:22.347Z,4.57
2022-07-27T18:33:50.826Z,1.67
2022-07-27T18:36:18.018Z,4.13
2022-07-27T18:38:49.607Z,1.92
2022-07-27T18:41:18.847Z,1.40
2022-07-27T18:43:51.961Z,1.73
2022-07-27T18:46:19.386Z,3.42
2022-07-27T18:48:46.180Z,2.40
2022-07-27T18:51:13.103Z,2.78
2022-07-27T18:53:39.822Z,3.30
2022-07-27T18:56:09.141Z,2.10
2022-07-27T18:58:35.697Z,1.60
2022-07-27T19:01:02.187Z,2.17
2022-07-27T19:03:28.693Z,3.80
2022-07-27T19:05:55.394Z,1.65
2022-07-27T19:08:21.933Z,3.65
2022-07-27T19:10:48.401Z,2.15
2022-07-27T19:13:14.850Z,3.33
2022-07-27T19:15:41.369Z,2.25
2022-07-27T19:18:08.060Z,3.17
2022-07-27T19:20:36.326Z,2.47
2022-07-27T19:23:03.302Z,2.38
2022-07-27T19:25:30.572Z,2.65
2022-07-27T19:27:57.553Z,3.05
2022-07-27T19:30:24.071Z,0.55
2022-07-27T19:32:50.507Z,4.40
2022-07-27T19:35:16.874Z,3.58
2022-07-27T19:37:43.387Z,3.08
2022-07-27T19:40:41.694Z,7.22
2022-07-27T19:42:56.682Z,2.92
2022-07-27T19:45:23.128Z,2.63
2022-07-27T19:47:49.563Z,4.93
2022-07-27T19:50:15.993Z,2.10
2022-07-27T19:52:42.516Z,2.40
2022-07-27T19:55:10.037Z,7.18
2022-07-27T19:57:36.806Z,2.67
2022-07-27T20:00:06.220Z,1.75
2022-07-27T20:02:32.757Z,2.65
2022-07-27T20:04:59.390Z,3.45
2022-07-27T20:07:25.927Z,4.32
2022-07-27T20:09:52.395Z,3.67
2022-07-27T20:12:18.825Z,3.03
2022-07-27T20:14:45.385Z,4.15
2022-07-27T20:17:11.826Z,2.45
2022-07-27T20:19:38.260Z,6.03
2022-07-27T20:22:04.656Z,1.67
2022-07-27T20:24:31.170Z,7.10
2022-07-27T20:26:57.687Z,3.42
2022-07-27T20:29:24.392Z,2.53
2022-07-27T20:31:55.405Z,2.50
2022-07-27T20:34:22.625Z,5.20
2022-07-27T20:36:49.485Z,4.63
2022-07-27T20:39:17.762Z,5.03
2022-07-27T20:41:44.477Z,6.57
2022-07-27T20:44:10.937Z,2.65
2022-07-27T20:46:37.447Z,2.60
2022-07-27T20:49:04.355Z,10.95
2022-07-27T20:51:30.846Z,3.70
2022-07-27T20:53:58.256Z,3.17
2022-07-27T20:56:24.734Z,2.65
2022-07-27T20:58:51.180Z,2.53
2022-07-27T21:01:17.620Z,4.30
2022-07-27T21:03:45.148Z,3.80
2022-07-27T21:06:11.557Z,3.67
2022-07-27T21:08:41.571Z,2.92
2022-07-27T21:11:10.898Z,5.15
2022-07-27T21:13:37.288Z,2.95
2022-07-27T21:16:04.966Z,3.92
2022-07-27T21:18:32.782Z,5.28
2022-07-27T21:20:59.350Z,4.63
2022-07-27T21:23:44.426Z,3.53
2022-07-27T21:26:10.887Z,5.28
2022-07-27T21:28:37.513Z,1.98
2022-07-27T21:31:07.682Z,3.30
2022-07-27T21:33:39.391Z,1.85
2022-07-27T21:36:06.362Z,5.70
2022-07-27T21:38:32.785Z,5.70
2022-07-27T21:40:59.234Z,4.38
2022-07-27T21:43:25.641Z,6.05
2022-07-27T21:45:52.145Z,5.43
2022-07-27T21:48:18.721Z,2.38
2022-07-27T21:50:45.157Z,4.70
2022-07-27T21:53:11.599Z,2.53
2022-07-27T21:55:39.047Z,5.40
2022-07-27T21:58:05.410Z,4.47
2022-07-27T22:00:31.929Z,7.00
2022-07-27T22:02:58.540Z,4.97
2022-07-27T22:05:25.021Z,6.70
2022-07-27T22:07:51.943Z,4.20
2022-07-27T22:10:18.531Z,3.15
2022-07-27T22:12:45.010Z,4.00
2022-07-27T22:15:11.542Z,4.18
2022-07-27T22:17:50.114Z,2.67
2022-07-27T22:20:18.884Z,10.20
2022-07-27T22:22:45.546Z,3.78
2022-07-27T22:25:11.998Z,2.80
2022-07-27T22:27:38.486Z,2.85
2022-07-27T22:30:05.558Z,3.55
2022-07-27T22:32:32.959Z,3.83
2022-07-27T22:34:59.365Z,3.50
2022-07-27T22:37:26.072Z,6.18
2022-07-27T22:39:52.530Z,4.07
2022-07-27T22:42:19.009Z,7.82
2022-07-27T22:44:45.635Z,3.83
2022-07-27T22:47:12.126Z,4.10
2022-07-27T22:49:38.614Z,6.03
2022-07-27T22:52:05.365Z,5.10
2022-07-27T22:54:36.464Z,3.83
2022-07-27T22:57:03.420Z,4.63
2022-07-27T22:59:30.748Z,4.65
2022-07-27T23:01:57.342Z,4.18
2022-07-27T23:04:24.141Z,3.40
2022-07-27T23:06:50.737Z,5.30
2022-07-27T23:09:17.158Z,3.28
2022-07-27T23:11:44.169Z,3.00
2022-07-27T23:14:11.701Z,4.68
2022-07-27T23:16:38.813Z,5.63
2022-07-27T23:19:05.408Z,4.90
2022-07-27T23:21:31.827Z,3.13
2022-07-27T23:23:58.256Z,2.22
2022-07-27T23:26:25.745Z,5.35
2022-07-27T23:28:53.247Z,3.72
2022-07-27T23:31:19.840Z,2.50
2022-07-27T23:33:46.884Z,5.05
2022-07-27T23:36:13.319Z,3.85
2022-07-27T23:38:39.735Z,3.42
2022-07-27T23:41:06.169Z,3.90
2022-07-27T23:43:32.579Z,2.95
2022-07-27T23:45:59.029Z,6.03
2022-07-27T23:48:25.560Z,3.45
2022-07-27T23:50:52.726Z,6.90
2022-07-27T23:53:19.148Z,2.33
2022-07-27T23:55:45.573Z,2.65
2022-07-27T23:58:12.040Z,4.43
